PDT,Max TemperatureF,Mean TemperatureF,Min TemperatureF,Max Dew PointF,MeanDew PointF,Min DewpointF,Max Humidity, Mean Humidity, Min Humidity, Max Sea Level PressureIn, Mean Sea Level PressureIn, Min Sea Level PressureIn, Max VisibilityMiles, Mean VisibilityMiles, Min VisibilityMiles, Max Wind SpeedMPH, Mean Wind SpeedMPH, Max Gust SpeedMPH,PrecipitationIn, CloudCover, Events, WindDirDegrees
2013-7-1,111,96,82,73,66,53,67,40,17,29.75,29.70,29.63,10,10,10,15,9,23,0.00,1,,204
2013-7-2,111,98,87,74,61,51,59,31,14,29.87,29.77,29.67,10,8,2,29,11,39,0.00,2,,202
2013-7-3,113,98,84,69,56,50,44,27,13,29.73,29.66,29.56,10,10,7,14,6,,0.00,1,,212
2013-7-4,109,96,82,76,66,48,74,43,17,29.68,29.62,29.54,10,10,10,20,10,,0.00,0,,140
2013-7-5,107,94,81,74,63,51,72,44,16,29.70,29.64,29.58,10,10,9,17,9,20,0.00,0,,124
2013-7-6,107,94,81,66,60,50,49,34,18,29.70,29.62,29.54,10,10,10,9,5,,0.00,0,,119
2013-7-7,111,96,81,69,59,50,67,33,14,29.68,29.62,29.55,10,10,10,12,4,,0.00,2,,172
2013-7-8,115,98,84,70,53,41,44,23,9,29.79,29.72,29.66,10,10,10,13,7,,0.00,2,,157
2013-7-9,99,92,84,77,74,66,77,56,40,29.93,29.85,29.78,10,10,10,18,11,,0.00,0,,133
2013-7-10,99,91,84,76,73,69,74,57,40,29.89,29.82,29.75,10,10,2,25,10,31,0.00,0,,144
2013-7-11,96,86,78,74,71,67,78,59,41,29.88,29.81,29.76,10,10,2,13,8,,0.00,2,Rain,55
2013-7-12,104,92,80,70,65,58,69,43,27,29.82,29.76,29.68,10,10,10,8,3,,0.00,0,,114
2013-7-13,108,94,82,70,62,56,63,36,19,29.83,29.75,29.68,10,10,10,9,3,,0.00,1,,191
2013-7-14,109,98,87,70,62,52,55,33,21,29.80,29.72,29.63,10,10,10,10,4,,0.00,2,,152
2013-7-15,111,98,84,73,56,45,59,29,14,29.72,29.66,29.56,10,10,10,17,4,25,0.00,2,,218
2013-7-16,109,94,80,49,39,31,34,16,7,29.83,29.74,29.68,10,9,2,20,8,26,0.00,1,,256
2013-7-17,107,94,80,59,41,22,32,17,7,29.91,29.83,29.76,10,10,10,8,3,,0.00,0,,347
2013-7-18,113,94,78,48,36,22,31,14,4,29.82,29.75,29.66,10,10,6,9,5,,0.00,2,,288
2013-7-19,100,93,86,78,74,68,72,58,45,29.83,29.75,29.67,10,10,10,18,11,,0.00,0,,127
2013-7-20,98,90,82,76,73,70,79,59,43,29.81,29.74,29.66,10,10,10,18,9,,0.00,0,,126
2013-7-21,93,87,81,75,72,67,82,63,42,29.83,29.78,29.71,10,10,10,20,10,29,0.00,0,Rain,111
2013-7-22,100,88,77,72,67,61,82,50,27,29.88,29.83,29.77,10,10,10,12,2,,0.00,0,,158
2013-7-23,105,93,82,74,65,62,74,43,26,29.88,29.81,29.71,10,10,10,12,4,,0.00,0,,232
2013-7-24,109,96,84,64,61,59,46,33,21,29.81,29.75,29.65,10,10,10,10,4,,0.00,0,,246
2013-7-25,104,93,84,73,66,59,67,43,27,29.88,29.81,29.73,10,10,10,14,8,21,0.05,0,,140
2013-7-26,107,96,86,70,64,57,55,36,22,29.94,29.87,29.80,10,10,10,12,5,,0.00,1,,128
2013-7-27,109,96,84,69,60,52,59,33,16,29.86,29.77,29.65,10,10,10,16,6,23,0.00,0,,244
2013-7-28,109,94,81,53,44,37,34,19,10,29.73,29.69,29.62,10,10,10,21,10,30,0.00,0,,257
2013-7-29,108,92,77,61,47,36,39,22,9,29.85,29.78,29.72,10,10,5,12,8,17,0.00,0,,175
2013-7-30,106,93,80,68,60,53,53,34,19,29.95,29.88,29.82,10,10,10,13,4,,0.00,0,,121
2013-7-31,108,94,79,68,56,26,66,34,10,29.92,29.84,29.75,10,10,10,12,3,,0.00,0,,309